Accueil
METAR-TAF:

METAR-TAF

Aéroports :

Aéroport de Londres-Southend

Londres-Southend, Angleterre

latitude: 51-34N, longitude: 000-42E, altitude: 15 m

Observation

Le bulletin a été fait il y a 28 minutes, à 08:20 UTC
Vent 7 kt de sud-est
Température 4°C
Humidité 81%
Pression 1011 hPa
Visibilité 10 km ou plus
Quelques nuages à une hauteur de 2600 ft

METAR: EGMC 210820Z 13007KT 9999 FEW026 04/01 Q1011

Heure: 08:48 (08:48 UTC)

Prévision

Le bulletin a été fait il y a 44 minutes, à 08:04 UTC
Prévision valable du 21 à 09 UTC au 21 à 18 UTC
Vent 9 kt de est/sud-est
Visibilité 10 km ou plus
Nuages épars à une hauteur de 3000 ft

TAF: EGMC 210804Z 2109/2118 11009KT 9999 SCT030

Observations et prévisions météorologiques de plus de 4000 aéroports (messages METAR et TAF).

Les stations disponibles sont représentées par des disques jaunes et rouges sur la carte.

Passer la souris dessus pour voir le nom de la station.

Cliquer dessus pour voir les observations et prévisions météorologiques.

Pour changer de carte: cliquez sur les boutons verts avec une croix noire pour zoomer, sur le bouton vert avec un tiret pour effectuer un zoom arrière, ou sur les flèches vertes pour les cartes adjacentes.


METAR-TAF: